Hauptseite
METAR-TAF:

METAR-TAF

Flughäfen :

Fliegerhorst Hohn

Hohn, Deutschland

Breite: 54-19N, Länge: 009-32E, Höhe: 12 m

Beobachtung

Neuester Wetterbericht von vor 34 Minuten, um 10:20 UTC
Wind 3 kt aus Ost/Südost
Temperatur 6°C
Luftfeuchtigkeit 81%
Luftdruck 1007 hPa
Sichtweite 10 km oder mehr
Leicht bewölkt in der Höhe von 3000 ft

METAR: ETNH 141020Z 12003KT 9999 FEW030 06/03 Q1007 BLU+BLU+

Zeit: 11:54 (10:54 UTC)

Prognose

Neuester Wetterbericht von vor 2 Stunden und 6 Minuten, um 08:48 UTC
Gültige Prognose vom 14 um 08 UTC bis 14 um 18 UTC
Wind 7 kt aus Süd/Südost
Sichtweite: 4000 m
Leicht bewölkt in der Höhe von 20000 ft
feuchter Dunst
Übergehend zu
vom 14 um 08 UTC bis 14 um 10 UTC
Wind 8 kt aus Ost/Südost
Sichtweite 10 km oder mehr
Aufgelockert bewölkt in der Höhe von 20000 ft

TAF: ETNH 140848Z 1408/1418 15007KT 4000 BR FEW200 BECMG 1408/1410 11008KT 9999 NSW SCT200 BY ETGL

Wetterbeobachtungen und Prognosen von mehr als 4000 Flughäfen (METAR und TAF Bericht).

Die verfügbaren Stationen werden durch gelbe und rote Markierungen auf der Karte dargestellt.

Führen Sie die Maus auf sie, um den Namen der Station zu sehen.

Darauf klicken, um die Beobachtung von Wetterbeobachtungen und Prognosen zu sehen.

Um die Karte zu ändern : klicken Sie auf den grünen Tasten mit einem schwarzen Kreuz Zum Vergrößern, auf den grünen Button mit einem Gedankenstrich zu verkleinern, oder auf die grünen Pfeile für benachbarte Karten.


METAR-TAF: